sensor_id;sensor_type;location;lat;lon;timestamp;P1;durP1;ratioP1;P2;durP2;ratioP2
41635;SDS011;27623;51.966;4.602;2022-07-19T00:00:23;9.75;;;3.63;;
41635;SDS011;27623;51.966;4.602;2022-07-19T00:02:50;7.95;;;3.90;;
41635;SDS011;27623;51.966;4.602;2022-07-19T00:05:16;6.82;;;3.85;;
41635;SDS011;27623;51.966;4.602;2022-07-19T00:07:44;6.78;;;3.63;;
41635;SDS011;27623;51.966;4.602;2022-07-19T00:10:15;10.50;;;4.07;;
41635;SDS011;27623;51.966;4.602;2022-07-19T00:12:42;11.18;;;3.83;;
41635;SDS011;27623;51.966;4.602;2022-07-19T00:15:09;7.13;;;3.75;;
41635;SDS011;27623;51.966;4.602;2022-07-19T00:17:39;8.82;;;3.85;;
41635;SDS011;27623;51.966;4.602;2022-07-19T00:20:06;8.65;;;3.88;;
41635;SDS011;27623;51.966;4.602;2022-07-19T00:22:34;14.60;;;4.43;;
41635;SDS011;27623;51.966;4.602;2022-07-19T00:25:00;6.80;;;3.63;;
41635;SDS011;27623;51.966;4.602;2022-07-19T00:27:25;8.85;;;3.50;;
41635;SDS011;27623;51.966;4.602;2022-07-19T00:29:53;10.18;;;4.15;;
41635;SDS011;27623;51.966;4.602;2022-07-19T00:32:22;10.48;;;4.40;;
41635;SDS011;27623;51.966;4.602;2022-07-19T00:34:47;7.80;;;3.78;;
41635;SDS011;27623;51.966;4.602;2022-07-19T00:37:13;7.53;;;3.75;;
41635;SDS011;27623;51.966;4.602;2022-07-19T00:39:38;9.88;;;4.38;;
41635;SDS011;27623;51.966;4.602;2022-07-19T00:42:04;9.48;;;4.15;;
41635;SDS011;27623;51.966;4.602;2022-07-19T00:44:30;8.07;;;3.95;;
41635;SDS011;27623;51.966;4.602;2022-07-19T00:46:56;11.20;;;4.30;;
41635;SDS011;27623;51.966;4.602;2022-07-19T00:49:21;9.80;;;4.72;;
41635;SDS011;27623;51.966;4.602;2022-07-19T00:51:47;7.47;;;4.82;;
41635;SDS011;27623;51.966;4.602;2022-07-19T00:54:17;7.43;;;4.65;;
41635;SDS011;27623;51.966;4.602;2022-07-19T00:56:43;10.38;;;5.60;;
41635;SDS011;27623;51.966;4.602;2022-07-19T00:59:12;9.57;;;4.90;;
41635;SDS011;27623;51.966;4.602;2022-07-19T01:01:38;10.93;;;4.82;;
41635;SDS011;27623;51.966;4.602;2022-07-19T01:04:04;7.65;;;4.32;;
41635;SDS011;27623;51.966;4.602;2022-07-19T01:06:33;10.65;;;4.93;;
41635;SDS011;27623;51.966;4.602;2022-07-19T01:09:01;10.05;;;4.95;;
41635;SDS011;27623;51.966;4.602;2022-07-19T01:11:27;12.05;;;5.60;;
41635;SDS011;27623;51.966;4.602;2022-07-19T01:13:53;10.75;;;4.72;;
41635;SDS011;27623;51.966;4.602;2022-07-19T01:16:18;12.05;;;5.55;;
41635;SDS011;27623;51.966;4.602;2022-07-19T01:18:44;14.95;;;4.85;;
41635;SDS011;27623;51.966;4.602;2022-07-19T01:21:19;9.55;;;5.13;;
41635;SDS011;27623;51.966;4.602;2022-07-19T01:23:46;9.50;;;5.07;;
41635;SDS011;27623;51.966;4.602;2022-07-19T01:26:11;9.00;;;5.38;;
41635;SDS011;27623;51.966;4.602;2022-07-19T01:28:37;8.65;;;5.03;;
41635;SDS011;27623;51.966;4.602;2022-07-19T01:31:03;9.07;;;5.60;;
41635;SDS011;27623;51.966;4.602;2022-07-19T01:33:29;9.55;;;5.22;;
41635;SDS011;27623;51.966;4.602;2022-07-19T01:35:54;9.00;;;4.93;;
41635;SDS011;27623;51.966;4.602;2022-07-19T01:38:20;10.27;;;4.90;;
41635;SDS011;27623;51.966;4.602;2022-07-19T01:40:46;8.98;;;5.13;;
41635;SDS011;27623;51.966;4.602;2022-07-19T01:43:12;8.68;;;5.10;;
41635;SDS011;27623;51.966;4.602;2022-07-19T01:45:40;9.90;;;5.88;;
41635;SDS011;27623;51.966;4.602;2022-07-19T01:48:06;12.00;;;6.07;;
41635;SDS011;27623;51.966;4.602;2022-07-19T01:50:32;10.27;;;5.68;;
41635;SDS011;27623;51.966;4.602;2022-07-19T01:52:58;9.23;;;5.82;;
41635;SDS011;27623;51.966;4.602;2022-07-19T01:55:23;8.55;;;5.75;;
41635;SDS011;27623;51.966;4.602;2022-07-19T01:57:51;11.25;;;5.97;;
41635;SDS011;27623;51.966;4.602;2022-07-19T02:00:16;13.20;;;7.32;;
41635;SDS011;27623;51.966;4.602;2022-07-19T02:02:42;13.43;;;6.80;;
41635;SDS011;27623;51.966;4.602;2022-07-19T02:05:08;10.38;;;6.55;;
41635;SDS011;27623;51.966;4.602;2022-07-19T02:07:34;12.25;;;6.95;;
41635;SDS011;27623;51.966;4.602;2022-07-19T02:09:59;14.00;;;6.90;;
41635;SDS011;27623;51.966;4.602;2022-07-19T02:12:27;13.63;;;7.80;;
41635;SDS011;27623;51.966;4.602;2022-07-19T02:14:52;15.38;;;7.05;;
41635;SDS011;27623;51.966;4.602;2022-07-19T02:17:18;14.77;;;7.63;;
41635;SDS011;27623;51.966;4.602;2022-07-19T02:19:46;12.35;;;7.03;;
41635;SDS011;27623;51.966;4.602;2022-07-19T02:22:12;12.38;;;7.15;;
41635;SDS011;27623;51.966;4.602;2022-07-19T02:24:37;13.75;;;7.70;;
41635;SDS011;27623;51.966;4.602;2022-07-19T02:27:04;12.00;;;7.00;;
41635;SDS011;27623;51.966;4.602;2022-07-19T02:29:29;13.00;;;8.13;;
41635;SDS011;27623;51.966;4.602;2022-07-19T02:31:55;12.70;;;7.32;;
41635;SDS011;27623;51.966;4.602;2022-07-19T02:34:20;13.40;;;7.57;;
41635;SDS011;27623;51.966;4.602;2022-07-19T02:36:46;14.18;;;7.65;;
41635;SDS011;27623;51.966;4.602;2022-07-19T02:39:14;17.27;;;8.25;;
41635;SDS011;27623;51.966;4.602;2022-07-19T02:41:39;14.25;;;7.78;;
41635;SDS011;27623;51.966;4.602;2022-07-19T02:44:05;14.10;;;8.00;;
41635;SDS011;27623;51.966;4.602;2022-07-19T02:46:30;12.77;;;7.65;;
41635;SDS011;27623;51.966;4.602;2022-07-19T02:48:57;16.42;;;8.15;;
41635;SDS011;27623;51.966;4.602;2022-07-19T02:51:23;16.90;;;8.10;;
41635;SDS011;27623;51.966;4.602;2022-07-19T02:53:48;14.18;;;8.05;;
41635;SDS011;27623;51.966;4.602;2022-07-19T02:56:13;13.65;;;7.95;;
41635;SDS011;27623;51.966;4.602;2022-07-19T02:58:39;15.73;;;8.05;;
41635;SDS011;27623;51.966;4.602;2022-07-19T03:01:05;17.13;;;8.40;;
41635;SDS011;27623;51.966;4.602;2022-07-19T03:03:32;15.02;;;8.85;;
41635;SDS011;27623;51.966;4.602;2022-07-19T03:06:11;13.95;;;8.20;;
41635;SDS011;27623;51.966;4.602;2022-07-19T03:08:38;14.15;;;8.70;;
41635;SDS011;27623;51.966;4.602;2022-07-19T03:11:03;16.33;;;8.10;;
41635;SDS011;27623;51.966;4.602;2022-07-19T03:13:31;13.73;;;7.75;;
41635;SDS011;27623;51.966;4.602;2022-07-19T03:15:57;15.48;;;8.15;;
41635;SDS011;27623;51.966;4.602;2022-07-19T03:18:23;15.48;;;7.93;;
41635;SDS011;27623;51.966;4.602;2022-07-19T03:20:49;15.13;;;8.32;;
41635;SDS011;27623;51.966;4.602;2022-07-19T03:23:15;14.65;;;9.23;;
41635;SDS011;27623;51.966;4.602;2022-07-19T03:25:40;17.58;;;8.75;;
41635;SDS011;27623;51.966;4.602;2022-07-19T03:28:06;16.75;;;9.27;;
41635;SDS011;27623;51.966;4.602;2022-07-19T03:30:32;15.75;;;8.25;;
41635;SDS011;27623;51.966;4.602;2022-07-19T03:32:58;15.38;;;9.13;;
41635;SDS011;27623;51.966;4.602;2022-07-19T03:35:24;15.23;;;9.02;;
41635;SDS011;27623;51.966;4.602;2022-07-19T03:37:52;13.90;;;7.90;;
41635;SDS011;27623;51.966;4.602;2022-07-19T03:40:20;16.35;;;8.80;;
41635;SDS011;27623;51.966;4.602;2022-07-19T03:42:46;18.25;;;9.27;;
41635;SDS011;27623;51.966;4.602;2022-07-19T03:45:14;13.25;;;8.00;;
41635;SDS011;27623;51.966;4.602;2022-07-19T03:47:40;15.63;;;9.15;;
41635;SDS011;27623;51.966;4.602;2022-07-19T03:50:06;15.98;;;9.00;;
41635;SDS011;27623;51.966;4.602;2022-07-19T03:52:34;16.40;;;8.70;;
41635;SDS011;27623;51.966;4.602;2022-07-19T03:55:00;15.20;;;8.93;;
41635;SDS011;27623;51.966;4.602;2022-07-19T03:57:26;15.15;;;9.00;;
41635;SDS011;27623;51.966;4.602;2022-07-19T03:59:52;13.25;;;8.93;;
41635;SDS011;27623;51.966;4.602;2022-07-19T04:02:17;14.27;;;9.02;;
41635;SDS011;27623;51.966;4.602;2022-07-19T04:04:42;15.23;;;8.35;;
41635;SDS011;27623;51.966;4.602;2022-07-19T04:07:08;13.90;;;9.20;;
41635;SDS011;27623;51.966;4.602;2022-07-19T04:09:33;13.18;;;8.32;;
41635;SDS011;27623;51.966;4.602;2022-07-19T04:11:59;13.07;;;8.75;;
41635;SDS011;27623;51.966;4.602;2022-07-19T04:14:28;14.10;;;8.48;;
41635;SDS011;27623;51.966;4.602;2022-07-19T04:16:53;14.65;;;8.27;;
41635;SDS011;27623;51.966;4.602;2022-07-19T04:19:19;17.45;;;8.93;;
41635;SDS011;27623;51.966;4.602;2022-07-19T04:21:44;12.98;;;8.50;;
41635;SDS011;27623;51.966;4.602;2022-07-19T04:24:09;14.63;;;9.50;;
41635;SDS011;27623;51.966;4.602;2022-07-19T04:26:35;14.75;;;9.07;;
41635;SDS011;27623;51.966;4.602;2022-07-19T04:29:00;17.95;;;9.43;;
41635;SDS011;27623;51.966;4.602;2022-07-19T04:31:26;13.88;;;9.30;;
41635;SDS011;27623;51.966;4.602;2022-07-19T04:33:53;16.95;;;9.57;;
41635;SDS011;27623;51.966;4.602;2022-07-19T04:36:19;18.85;;;10.93;;
41635;SDS011;27623;51.966;4.602;2022-07-19T04:38:44;14.93;;;9.35;;
41635;SDS011;27623;51.966;4.602;2022-07-19T04:41:10;14.75;;;9.10;;
41635;SDS011;27623;51.966;4.602;2022-07-19T04:43:35;15.60;;;9.30;;
41635;SDS011;27623;51.966;4.602;2022-07-19T04:46:01;14.05;;;9.18;;
41635;SDS011;27623;51.966;4.602;2022-07-19T04:48:28;18.80;;;10.77;;
41635;SDS011;27623;51.966;4.602;2022-07-19T04:50:54;17.63;;;10.38;;
41635;SDS011;27623;51.966;4.602;2022-07-19T04:53:22;19.63;;;10.82;;
41635;SDS011;27623;51.966;4.602;2022-07-19T04:55:53;22.08;;;11.25;;
41635;SDS011;27623;51.966;4.602;2022-07-19T04:58:23;19.17;;;11.95;;
41635;SDS011;27623;51.966;4.602;2022-07-19T05:00:49;16.20;;;10.57;;
41635;SDS011;27623;51.966;4.602;2022-07-19T05:03:17;19.67;;;10.82;;
41635;SDS011;27623;51.966;4.602;2022-07-19T05:05:42;15.90;;;10.15;;
41635;SDS011;27623;51.966;4.602;2022-07-19T05:08:08;15.82;;;11.05;;
41635;SDS011;27623;51.966;4.602;2022-07-19T05:10:33;15.10;;;11.23;;
41635;SDS011;27623;51.966;4.602;2022-07-19T05:12:59;20.20;;;11.15;;
41635;SDS011;27623;51.966;4.602;2022-07-19T05:15:24;17.38;;;10.75;;
41635;SDS011;27623;51.966;4.602;2022-07-19T05:17:50;14.57;;;10.82;;
41635;SDS011;27623;51.966;4.602;2022-07-19T05:20:16;16.90;;;10.02;;
41635;SDS011;27623;51.966;4.602;2022-07-19T05:22:42;17.60;;;11.27;;
41635;SDS011;27623;51.966;4.602;2022-07-19T05:25:08;17.42;;;10.95;;
41635;SDS011;27623;51.966;4.602;2022-07-19T05:27:34;17.27;;;11.55;;
41635;SDS011;27623;51.966;4.602;2022-07-19T05:30:00;17.92;;;12.07;;
41635;SDS011;27623;51.966;4.602;2022-07-19T05:32:26;20.98;;;11.98;;
41635;SDS011;27623;51.966;4.602;2022-07-19T05:34:53;15.95;;;10.57;;
41635;SDS011;27623;51.966;4.602;2022-07-19T05:37:19;17.90;;;11.50;;
41635;SDS011;27623;51.966;4.602;2022-07-19T05:39:44;17.83;;;11.50;;
41635;SDS011;27623;51.966;4.602;2022-07-19T05:42:10;17.42;;;10.73;;
41635;SDS011;27623;51.966;4.602;2022-07-19T05:44:35;16.75;;;11.18;;
41635;SDS011;27623;51.966;4.602;2022-07-19T05:47:01;19.48;;;11.52;;
41635;SDS011;27623;51.966;4.602;2022-07-19T05:49:27;19.42;;;11.85;;
41635;SDS011;27623;51.966;4.602;2022-07-19T05:51:52;17.20;;;12.23;;
41635;SDS011;27623;51.966;4.602;2022-07-19T05:54:18;19.98;;;11.73;;
41635;SDS011;27623;51.966;4.602;2022-07-19T05:56:43;17.13;;;12.02;;
41635;SDS011;27623;51.966;4.602;2022-07-19T05:59:09;20.15;;;12.60;;
41635;SDS011;27623;51.966;4.602;2022-07-19T06:01:35;21.35;;;11.88;;
41635;SDS011;27623;51.966;4.602;2022-07-19T06:04:00;23.58;;;13.68;;
41635;SDS011;27623;51.966;4.602;2022-07-19T06:06:30;18.65;;;11.73;;
41635;SDS011;27623;51.966;4.602;2022-07-19T06:08:56;23.00;;;12.20;;
41635;SDS011;27623;51.966;4.602;2022-07-19T06:11:23;20.67;;;12.50;;
41635;SDS011;27623;51.966;4.602;2022-07-19T06:13:54;19.75;;;12.57;;
41635;SDS011;27623;51.966;4.602;2022-07-19T06:16:20;21.50;;;13.15;;
41635;SDS011;27623;51.966;4.602;2022-07-19T06:18:46;20.13;;;13.02;;
41635;SDS011;27623;51.966;4.602;2022-07-19T06:21:13;19.98;;;12.90;;
41635;SDS011;27623;51.966;4.602;2022-07-19T06:23:41;23.75;;;13.77;;
41635;SDS011;27623;51.966;4.602;2022-07-19T06:26:07;21.42;;;12.40;;
41635;SDS011;27623;51.966;4.602;2022-07-19T06:28:34;20.55;;;12.63;;
41635;SDS011;27623;51.966;4.602;2022-07-19T06:31:03;19.77;;;12.45;;
41635;SDS011;27623;51.966;4.602;2022-07-19T06:33:29;22.92;;;13.20;;
41635;SDS011;27623;51.966;4.602;2022-07-19T06:35:55;24.67;;;13.55;;
41635;SDS011;27623;51.966;4.602;2022-07-19T06:38:20;26.02;;;13.35;;
41635;SDS011;27623;51.966;4.602;2022-07-19T06:40:46;23.30;;;12.50;;
41635;SDS011;27623;51.966;4.602;2022-07-19T06:43:11;20.52;;;12.48;;
41635;SDS011;27623;51.966;4.602;2022-07-19T06:45:37;18.67;;;12.80;;
41635;SDS011;27623;51.966;4.602;2022-07-19T06:48:03;21.40;;;12.32;;
41635;SDS011;27623;51.966;4.602;2022-07-19T06:50:29;21.58;;;11.93;;
41635;SDS011;27623;51.966;4.602;2022-07-19T06:52:55;21.17;;;13.00;;
41635;SDS011;27623;51.966;4.602;2022-07-19T06:55:20;18.42;;;11.35;;
41635;SDS011;27623;51.966;4.602;2022-07-19T06:57:46;26.38;;;12.80;;
41635;SDS011;27623;51.966;4.602;2022-07-19T07:00:11;23.38;;;13.27;;
41635;SDS011;27623;51.966;4.602;2022-07-19T07:02:41;26.17;;;14.82;;
41635;SDS011;27623;51.966;4.602;2022-07-19T07:05:10;20.60;;;12.10;;
41635;SDS011;27623;51.966;4.602;2022-07-19T07:07:37;25.92;;;13.55;;
41635;SDS011;27623;51.966;4.602;2022-07-19T07:10:04;26.20;;;12.88;;
41635;SDS011;27623;51.966;4.602;2022-07-19T07:12:31;19.33;;;12.18;;
41635;SDS011;27623;51.966;4.602;2022-07-19T07:15:00;19.20;;;12.38;;
41635;SDS011;27623;51.966;4.602;2022-07-19T07:17:27;17.13;;;10.85;;
41635;SDS011;27623;51.966;4.602;2022-07-19T07:19:55;19.30;;;10.23;;
41635;SDS011;27623;51.966;4.602;2022-07-19T07:22:22;19.33;;;11.48;;
41635;SDS011;27623;51.966;4.602;2022-07-19T07:24:47;15.02;;;9.93;;
41635;SDS011;27623;51.966;4.602;2022-07-19T07:27:13;16.98;;;10.63;;
41635;SDS011;27623;51.966;4.602;2022-07-19T07:29:38;16.05;;;10.18;;
41635;SDS011;27623;51.966;4.602;2022-07-19T07:32:03;17.70;;;11.25;;
41635;SDS011;27623;51.966;4.602;2022-07-19T07:34:29;18.33;;;10.25;;
41635;SDS011;27623;51.966;4.602;2022-07-19T07:36:54;19.77;;;10.40;;
41635;SDS011;27623;51.966;4.602;2022-07-19T07:39:20;16.65;;;11.20;;
41635;SDS011;27623;51.966;4.602;2022-07-19T07:41:46;19.83;;;10.55;;
41635;SDS011;27623;51.966;4.602;2022-07-19T07:44:11;20.27;;;11.68;;
41635;SDS011;27623;51.966;4.602;2022-07-19T07:46:39;16.63;;;10.73;;
41635;SDS011;27623;51.966;4.602;2022-07-19T07:49:05;21.77;;;12.32;;
41635;SDS011;27623;51.966;4.602;2022-07-19T07:51:31;20.88;;;12.43;;
41635;SDS011;27623;51.966;4.602;2022-07-19T07:53:58;18.67;;;12.27;;
41635;SDS011;27623;51.966;4.602;2022-07-19T07:56:26;19.10;;;10.55;;
41635;SDS011;27623;51.966;4.602;2022-07-19T07:58:52;20.45;;;9.98;;
41635;SDS011;27623;51.966;4.602;2022-07-19T08:01:18;20.67;;;10.93;;
41635;SDS011;27623;51.966;4.602;2022-07-19T08:03:44;18.65;;;10.18;;
41635;SDS011;27623;51.966;4.602;2022-07-19T08:06:09;25.02;;;11.63;;
41635;SDS011;27623;51.966;4.602;2022-07-19T08:08:36;20.58;;;10.55;;
41635;SDS011;27623;51.966;4.602;2022-07-19T08:11:01;16.98;;;10.13;;
41635;SDS011;27623;51.966;4.602;2022-07-19T08:13:27;17.75;;;10.45;;
41635;SDS011;27623;51.966;4.602;2022-07-19T08:15:53;18.02;;;10.68;;
41635;SDS011;27623;51.966;4.602;2022-07-19T08:18:19;18.38;;;9.68;;
41635;SDS011;27623;51.966;4.602;2022-07-19T08:21:06;18.58;;;9.43;;
41635;SDS011;27623;51.966;4.602;2022-07-19T08:23:32;16.63;;;9.20;;
41635;SDS011;27623;51.966;4.602;2022-07-19T08:25:57;16.67;;;9.27;;
41635;SDS011;27623;51.966;4.602;2022-07-19T08:28:23;20.33;;;9.70;;
41635;SDS011;27623;51.966;4.602;2022-07-19T08:30:49;20.92;;;9.77;;
41635;SDS011;27623;51.966;4.602;2022-07-19T08:33:15;18.42;;;9.73;;
41635;SDS011;27623;51.966;4.602;2022-07-19T08:35:40;17.77;;;10.23;;
41635;SDS011;27623;51.966;4.602;2022-07-19T08:38:06;20.27;;;8.43;;
41635;SDS011;27623;51.966;4.602;2022-07-19T08:40:34;14.02;;;8.95;;
41635;SDS011;27623;51.966;4.602;2022-07-19T08:43:00;19.52;;;8.50;;
41635;SDS011;27623;51.966;4.602;2022-07-19T08:45:27;19.40;;;8.75;;
41635;SDS011;27623;51.966;4.602;2022-07-19T08:47:56;14.85;;;7.63;;
41635;SDS011;27623;51.966;4.602;2022-07-19T08:50:22;15.30;;;6.70;;
41635;SDS011;27623;51.966;4.602;2022-07-19T08:52:53;19.17;;;6.90;;
41635;SDS011;27623;51.966;4.602;2022-07-19T08:55:18;12.70;;;5.93;;
41635;SDS011;27623;51.966;4.602;2022-07-19T08:57:44;15.65;;;6.05;;
41635;SDS011;27623;51.966;4.602;2022-07-19T09:00:27;15.02;;;5.50;;
41635;SDS011;27623;51.966;4.602;2022-07-19T09:03:04;14.00;;;5.30;;
41635;SDS011;27623;51.966;4.602;2022-07-19T09:05:32;10.68;;;4.63;;
41635;SDS011;27623;51.966;4.602;2022-07-19T09:10:32;10.52;;;4.78;;
41635;SDS011;27623;51.966;4.602;2022-07-19T09:20:44;8.98;;;3.00;;
41635;SDS011;27623;51.966;4.602;2022-07-19T09:23:12;13.77;;;3.63;;
41635;SDS011;27623;51.966;4.602;2022-07-19T09:25:39;7.28;;;3.22;;
41635;SDS011;27623;51.966;4.602;2022-07-19T09:28:07;9.90;;;3.08;;
41635;SDS011;27623;51.966;4.602;2022-07-19T09:33:17;4.95;;;2.72;;
41635;SDS011;27623;51.966;4.602;2022-07-19T09:35:50;6.35;;;3.00;;
41635;SDS011;27623;51.966;4.602;2022-07-19T09:40:46;9.30;;;2.80;;
41635;SDS011;27623;51.966;4.602;2022-07-19T09:43:12;6.90;;;2.88;;
41635;SDS011;27623;51.966;4.602;2022-07-19T09:45:38;7.70;;;2.70;;
41635;SDS011;27623;51.966;4.602;2022-07-19T09:48:03;4.60;;;2.38;;
41635;SDS011;27623;51.966;4.602;2022-07-19T09:50:29;6.45;;;2.80;;
41635;SDS011;27623;51.966;4.602;2022-07-19T09:52:58;5.72;;;2.55;;
41635;SDS011;27623;51.966;4.602;2022-07-19T09:55:27;4.55;;;2.75;;
41635;SDS011;27623;51.966;4.602;2022-07-19T09:57:52;7.55;;;2.58;;
41635;SDS011;27623;51.966;4.602;2022-07-19T10:00:21;7.35;;;3.08;;
41635;SDS011;27623;51.966;4.602;2022-07-19T10:02:48;8.45;;;2.67;;
41635;SDS011;27623;51.966;4.602;2022-07-19T10:05:16;6.50;;;2.67;;
41635;SDS011;27623;51.966;4.602;2022-07-19T10:07:43;6.13;;;2.65;;
41635;SDS011;27623;51.966;4.602;2022-07-19T10:10:11;8.45;;;2.13;;
41635;SDS011;27623;51.966;4.602;2022-07-19T10:12:39;6.03;;;2.15;;
41635;SDS011;27623;51.966;4.602;2022-07-19T10:15:06;4.93;;;1.95;;
41635;SDS011;27623;51.966;4.602;2022-07-19T10:17:41;6.45;;;2.53;;
41635;SDS011;27623;51.966;4.602;2022-07-19T10:20:24;6.45;;;2.10;;
41635;SDS011;27623;51.966;4.602;2022-07-19T10:22:51;6.53;;;2.10;;
41635;SDS011;27623;51.966;4.602;2022-07-19T10:25:18;4.30;;;2.08;;
41635;SDS011;27623;51.966;4.602;2022-07-19T10:27:45;5.63;;;2.50;;
41635;SDS011;27623;51.966;4.602;2022-07-19T10:32:42;6.15;;;2.00;;
41635;SDS011;27623;51.966;4.602;2022-07-19T10:37:40;5.50;;;2.35;;
41635;SDS011;27623;51.966;4.602;2022-07-19T10:40:07;6.63;;;2.10;;
41635;SDS011;27623;51.966;4.602;2022-07-19T10:42:33;7.32;;;2.40;;
41635;SDS011;27623;51.966;4.602;2022-07-19T10:50:03;5.07;;;2.08;;
41635;SDS011;27623;51.966;4.602;2022-07-19T10:52:31;3.42;;;2.03;;
41635;SDS011;27623;51.966;4.602;2022-07-19T10:58:07;5.03;;;2.10;;
41635;SDS011;27623;51.966;4.602;2022-07-19T11:05:46;10.00;;;2.20;;
41635;SDS011;27623;51.966;4.602;2022-07-19T11:08:13;5.53;;;1.73;;
41635;SDS011;27623;51.966;4.602;2022-07-19T11:10:39;3.90;;;1.92;;
41635;SDS011;27623;51.966;4.602;2022-07-19T11:13:04;6.43;;;2.42;;
41635;SDS011;27623;51.966;4.602;2022-07-19T11:15:33;8.32;;;2.50;;
41635;SDS011;27623;51.966;4.602;2022-07-19T11:18:00;7.03;;;2.08;;
41635;SDS011;27623;51.966;4.602;2022-07-19T11:20:29;5.15;;;2.60;;
41635;SDS011;27623;51.966;4.602;2022-07-19T11:22:59;7.13;;;2.58;;
41635;SDS011;27623;51.966;4.602;2022-07-19T11:25:33;6.50;;;2.08;;
41635;SDS011;27623;51.966;4.602;2022-07-19T11:28:02;3.45;;;2.00;;
41635;SDS011;27623;51.966;4.602;2022-07-19T11:30:29;4.93;;;2.38;;
41635;SDS011;27623;51.966;4.602;2022-07-19T11:32:58;5.50;;;2.10;;
41635;SDS011;27623;51.966;4.602;2022-07-19T11:35:25;7.47;;;2.50;;
41635;SDS011;27623;51.966;4.602;2022-07-19T11:37:52;7.65;;;2.28;;
41635;SDS011;27623;51.966;4.602;2022-07-19T11:40:22;8.98;;;2.20;;
41635;SDS011;27623;51.966;4.602;2022-07-19T11:42:49;6.70;;;2.47;;
41635;SDS011;27623;51.966;4.602;2022-07-19T11:47:49;9.02;;;2.72;;
41635;SDS011;27623;51.966;4.602;2022-07-19T11:50:17;6.57;;;2.88;;
41635;SDS011;27623;51.966;4.602;2022-07-19T11:55:09;5.55;;;2.15;;
41635;SDS011;27623;51.966;4.602;2022-07-19T11:57:35;6.60;;;2.17;;
41635;SDS011;27623;51.966;4.602;2022-07-19T12:00:07;10.85;;;2.38;;
41635;SDS011;27623;51.966;4.602;2022-07-19T12:05:24;8.70;;;2.38;;
41635;SDS011;27623;51.966;4.602;2022-07-19T12:07:51;5.50;;;1.90;;
41635;SDS011;27623;51.966;4.602;2022-07-19T12:13:06;5.30;;;2.05;;
41635;SDS011;27623;51.966;4.602;2022-07-19T12:15:44;8.88;;;2.00;;
41635;SDS011;27623;51.966;4.602;2022-07-19T12:18:10;9.15;;;2.10;;
41635;SDS011;27623;51.966;4.602;2022-07-19T12:20:37;6.47;;;2.03;;
41635;SDS011;27623;51.966;4.602;2022-07-19T12:23:13;7.15;;;2.40;;
41635;SDS011;27623;51.966;4.602;2022-07-19T12:25:47;4.47;;;2.22;;
41635;SDS011;27623;51.966;4.602;2022-07-19T12:28:14;4.30;;;2.10;;
41635;SDS011;27623;51.966;4.602;2022-07-19T12:30:39;8.35;;;2.03;;
41635;SDS011;27623;51.966;4.602;2022-07-19T12:33:06;2.92;;;1.60;;
41635;SDS011;27623;51.966;4.602;2022-07-19T12:35:43;4.85;;;1.75;;
41635;SDS011;27623;51.966;4.602;2022-07-19T12:38:12;5.72;;;2.08;;
41635;SDS011;27623;51.966;4.602;2022-07-19T12:40:40;5.28;;;2.08;;
41635;SDS011;27623;51.966;4.602;2022-07-19T12:43:07;6.82;;;2.20;;
41635;SDS011;27623;51.966;4.602;2022-07-19T12:45:37;6.03;;;1.85;;
41635;SDS011;27623;51.966;4.602;2022-07-19T12:48:09;4.50;;;1.80;;
41635;SDS011;27623;51.966;4.602;2022-07-19T12:50:43;6.80;;;2.83;;
41635;SDS011;27623;51.966;4.602;2022-07-19T12:53:12;6.65;;;1.92;;
41635;SDS011;27623;51.966;4.602;2022-07-19T12:55:40;9.40;;;2.00;;
41635;SDS011;27623;51.966;4.602;2022-07-19T12:58:10;5.90;;;1.95;;
41635;SDS011;27623;51.966;4.602;2022-07-19T13:00:37;10.30;;;2.00;;
41635;SDS011;27623;51.966;4.602;2022-07-19T13:03:04;4.22;;;1.98;;
41635;SDS011;27623;51.966;4.602;2022-07-19T13:05:30;10.00;;;2.00;;
41635;SDS011;27623;51.966;4.602;2022-07-19T13:07:58;6.25;;;1.80;;
41635;SDS011;27623;51.966;4.602;2022-07-19T13:10:24;3.92;;;1.80;;
41635;SDS011;27623;51.966;4.602;2022-07-19T13:12:51;3.00;;;1.60;;
41635;SDS011;27623;51.966;4.602;2022-07-19T13:15:17;7.18;;;2.13;;
41635;SDS011;27623;51.966;4.602;2022-07-19T13:17:42;8.23;;;2.00;;
41635;SDS011;27623;51.966;4.602;2022-07-19T13:20:08;5.28;;;2.00;;
41635;SDS011;27623;51.966;4.602;2022-07-19T13:22:36;4.07;;;1.85;;
41635;SDS011;27623;51.966;4.602;2022-07-19T13:25:02;8.48;;;2.00;;
41635;SDS011;27623;51.966;4.602;2022-07-19T13:27:29;4.93;;;1.65;;
41635;SDS011;27623;51.966;4.602;2022-07-19T13:29:55;6.07;;;1.85;;
41635;SDS011;27623;51.966;4.602;2022-07-19T13:32:20;4.90;;;1.92;;
41635;SDS011;27623;51.966;4.602;2022-07-19T13:34:46;5.20;;;1.60;;
41635;SDS011;27623;51.966;4.602;2022-07-19T13:37:12;3.28;;;1.50;;
41635;SDS011;27623;51.966;4.602;2022-07-19T13:39:37;12.02;;;2.30;;
41635;SDS011;27623;51.966;4.602;2022-07-19T13:42:03;5.28;;;1.88;;
41635;SDS011;27623;51.966;4.602;2022-07-19T13:44:28;3.75;;;1.75;;
41635;SDS011;27623;51.966;4.602;2022-07-19T13:46:56;3.50;;;1.60;;
41635;SDS011;27623;51.966;4.602;2022-07-19T13:49:22;4.53;;;1.45;;
41635;SDS011;27623;51.966;4.602;2022-07-19T13:51:48;3.13;;;1.70;;
41635;SDS011;27623;51.966;4.602;2022-07-19T13:54:14;5.35;;;2.13;;
41635;SDS011;27623;51.966;4.602;2022-07-19T13:56:40;4.72;;;1.75;;
41635;SDS011;27623;51.966;4.602;2022-07-19T13:59:05;5.72;;;1.83;;
41635;SDS011;27623;51.966;4.602;2022-07-19T14:01:31;4.53;;;1.80;;
41635;SDS011;27623;51.966;4.602;2022-07-19T14:03:56;5.47;;;2.10;;
41635;SDS011;27623;51.966;4.602;2022-07-19T14:06:22;6.93;;;1.80;;
41635;SDS011;27623;51.966;4.602;2022-07-19T14:08:47;4.07;;;1.80;;
41635;SDS011;27623;51.966;4.602;2022-07-19T14:11:13;5.05;;;2.38;;
41635;SDS011;27623;51.966;4.602;2022-07-19T14:13:41;8.43;;;2.03;;
41635;SDS011;27623;51.966;4.602;2022-07-19T14:16:07;3.42;;;1.58;;
41635;SDS011;27623;51.966;4.602;2022-07-19T14:18:33;5.22;;;2.25;;
41635;SDS011;27623;51.966;4.602;2022-07-19T14:20:59;3.78;;;2.00;;
41635;SDS011;27623;51.966;4.602;2022-07-19T14:23:25;8.65;;;2.22;;
41635;SDS011;27623;51.966;4.602;2022-07-19T14:25:50;5.47;;;1.85;;
41635;SDS011;27623;51.966;4.602;2022-07-19T14:28:18;6.20;;;1.73;;
41635;SDS011;27623;51.966;4.602;2022-07-19T14:30:44;5.25;;;2.00;;
41635;SDS011;27623;51.966;4.602;2022-07-19T14:33:10;3.42;;;2.05;;
41635;SDS011;27623;51.966;4.602;2022-07-19T14:35:35;8.90;;;2.25;;
41635;SDS011;27623;51.966;4.602;2022-07-19T14:38:02;4.47;;;2.03;;
41635;SDS011;27623;51.966;4.602;2022-07-19T14:40:28;4.72;;;2.20;;
41635;SDS011;27623;51.966;4.602;2022-07-19T14:42:53;5.55;;;2.10;;
41635;SDS011;27623;51.966;4.602;2022-07-19T14:45:21;8.25;;;2.10;;
41635;SDS011;27623;51.966;4.602;2022-07-19T14:47:47;7.60;;;1.98;;
41635;SDS011;27623;51.966;4.602;2022-07-19T14:50:12;6.32;;;2.15;;
41635;SDS011;27623;51.966;4.602;2022-07-19T14:52:39;4.75;;;2.40;;
41635;SDS011;27623;51.966;4.602;2022-07-19T14:55:10;6.63;;;2.65;;
41635;SDS011;27623;51.966;4.602;2022-07-19T14:57:36;8.35;;;2.47;;
41635;SDS011;27623;51.966;4.602;2022-07-19T15:00:06;3.85;;;1.80;;
41635;SDS011;27623;51.966;4.602;2022-07-19T15:02:33;8.00;;;2.10;;
41635;SDS011;27623;51.966;4.602;2022-07-19T15:04:58;3.92;;;2.00;;
41635;SDS011;27623;51.966;4.602;2022-07-19T15:07:24;7.32;;;2.45;;
41635;SDS011;27623;51.966;4.602;2022-07-19T15:09:52;4.93;;;1.98;;
41635;SDS011;27623;51.966;4.602;2022-07-19T15:12:18;7.18;;;1.90;;
41635;SDS011;27623;51.966;4.602;2022-07-19T15:14:44;9.05;;;2.33;;
41635;SDS011;27623;51.966;4.602;2022-07-19T15:17:10;5.22;;;2.05;;
41635;SDS011;27623;51.966;4.602;2022-07-19T15:19:37;6.30;;;2.30;;